createdAt,value
2018-11-07T00:01:03.126Z,34.73
2018-11-07T00:03:33.573Z,36.00
2018-11-07T00:06:03.623Z,41.33
2018-11-07T00:08:34.042Z,45.27
2018-11-07T00:11:04.158Z,47.30
2018-11-07T00:13:34.393Z,53.63
2018-11-07T00:16:04.643Z,55.27
2018-11-07T00:18:35.058Z,57.23
2018-11-07T00:21:05.682Z,58.47
2018-11-07T00:23:35.758Z,60.13
2018-11-07T00:26:05.810Z,61.87
2018-11-07T00:28:36.003Z,60.43
2018-11-07T00:31:06.105Z,63.50
2018-11-07T00:33:36.713Z,65.47
2018-11-07T00:36:07.418Z,64.07
2018-11-07T00:38:37.563Z,68.70
2018-11-07T00:41:07.662Z,66.10
2018-11-07T00:43:37.788Z,67.83
2018-11-07T00:46:07.988Z,35.57
2018-11-07T00:48:38.199Z,23.30
2018-11-07T00:51:08.529Z,22.70
2018-11-07T00:53:38.562Z,21.43
2018-11-07T00:56:08.713Z,23.03
2018-11-07T00:58:38.931Z,23.93
2018-11-07T01:01:08.893Z,25.27
2018-11-07T01:03:39.052Z,32.00
2018-11-07T01:06:09.068Z,37.90
2018-11-07T01:08:40.102Z,46.27
2018-11-07T01:11:10.464Z,58.67
2018-11-07T01:13:40.548Z,65.43
2018-11-07T01:16:10.523Z,74.70
2018-11-07T01:18:40.689Z,77.33
2018-11-07T01:21:10.648Z,78.30
2018-11-07T01:23:40.742Z,79.53
2018-11-07T01:26:10.817Z,80.90
2018-11-07T01:28:40.862Z,83.10
2018-11-07T01:31:10.977Z,83.10
2018-11-07T01:33:41.093Z,83.33
2018-11-07T01:36:11.152Z,78.33
2018-11-07T01:38:41.298Z,75.77
2018-11-07T01:41:11.433Z,73.27
2018-11-07T01:43:41.588Z,71.70
2018-11-07T01:46:11.673Z,71.73
2018-11-07T01:48:41.784Z,68.50
2018-11-07T01:51:12.089Z,72.07
2018-11-07T01:53:41.941Z,67.90
2018-11-07T01:56:12.013Z,68.57
2018-11-07T01:58:42.387Z,68.47
2018-11-07T02:01:12.480Z,67.17
2018-11-07T02:03:42.750Z,60.17
2018-11-07T02:06:12.914Z,59.67
2018-11-07T02:08:43.058Z,58.27
2018-11-07T02:11:13.152Z,57.07
2018-11-07T02:13:43.213Z,56.03
2018-11-07T02:16:13.279Z,54.73
2018-11-07T02:18:43.573Z,55.47
2018-11-07T02:21:13.882Z,53.93
2018-11-07T02:23:44.043Z,55.40
2018-11-07T02:26:14.190Z,52.23
2018-11-07T02:28:44.575Z,51.73
2018-11-07T02:31:14.888Z,50.13
2018-11-07T02:33:45.235Z,48.53
2018-11-07T02:36:15.583Z,46.47
2018-11-07T02:38:45.744Z,46.57
2018-11-07T02:41:15.822Z,48.17
2018-11-07T02:43:46.013Z,45.37
2018-11-07T02:46:16.152Z,43.93
2018-11-07T02:48:46.196Z,42.73
2018-11-07T02:51:16.343Z,44.63
2018-11-07T02:53:46.418Z,43.53
2018-11-07T02:56:16.476Z,44.43
2018-11-07T02:58:46.807Z,45.40
2018-11-07T03:01:16.896Z,45.60
2018-11-07T03:03:46.884Z,45.17
2018-11-07T03:06:17.169Z,44.17
2018-11-07T03:08:47.390Z,45.67
2018-11-07T03:11:17.428Z,45.07
2018-11-07T03:13:47.788Z,47.93
2018-11-07T03:16:18.010Z,45.00
2018-11-07T03:18:48.050Z,44.40
2018-11-07T03:21:18.089Z,44.17
2018-11-07T03:23:48.198Z,44.73
2018-11-07T03:26:18.257Z,40.90
2018-11-07T03:28:48.308Z,41.37
2018-11-07T03:31:18.408Z,47.07
2018-11-07T03:33:48.478Z,48.57
2018-11-07T03:36:18.613Z,45.20
2018-11-07T03:38:48.492Z,36.97
2018-11-07T03:41:18.477Z,23.67
2018-11-07T03:43:48.739Z,17.50
2018-11-07T03:46:18.608Z,13.23
2018-11-07T03:48:48.517Z,12.57
2018-11-07T03:51:18.688Z,11.80
2018-11-07T03:53:48.898Z,10.90
2018-11-07T03:56:19.028Z,11.13
2018-11-07T03:58:49.253Z,12.00
2018-11-07T04:01:19.325Z,12.40
2018-11-07T04:03:49.572Z,12.37
2018-11-07T04:06:19.814Z,12.30
2018-11-07T04:08:49.878Z,11.83
2018-11-07T04:11:20.132Z,11.73
2018-11-07T04:13:50.194Z,11.07
2018-11-07T04:16:20.108Z,12.30
2018-11-07T04:18:50.129Z,11.90
2018-11-07T04:21:20.252Z,12.40
2018-11-07T04:23:57.738Z,12.03
2018-11-07T04:26:28.058Z,13.27
2018-11-07T04:28:58.283Z,13.03
2018-11-07T04:31:28.528Z,13.10
2018-11-07T04:33:58.568Z,12.60
2018-11-07T04:36:28.702Z,12.10
2018-11-07T04:38:59.000Z,11.80
2018-11-07T04:41:29.168Z,12.13
2018-11-07T04:43:59.317Z,12.40
2018-11-07T04:46:29.572Z,13.07
2018-11-07T04:48:59.591Z,11.90
2018-11-07T04:51:29.623Z,13.73
2018-11-07T04:53:59.638Z,11.77
2018-11-07T04:56:29.867Z,12.80
2018-11-07T04:59:00.403Z,12.50
2018-11-07T05:01:30.888Z,13.50
2018-11-07T05:04:01.113Z,12.73
2018-11-07T05:06:31.387Z,12.43
2018-11-07T05:09:01.953Z,12.70
2018-11-07T05:11:32.303Z,12.90
2018-11-07T05:14:02.492Z,13.53
2018-11-07T05:16:33.023Z,13.13
2018-11-07T05:19:03.147Z,11.97
2018-11-07T05:21:33.277Z,13.20
2018-11-07T05:24:03.482Z,13.57
2018-11-07T05:26:33.812Z,13.07
2018-11-07T05:29:04.188Z,12.17
2018-11-07T05:31:34.547Z,12.53
2018-11-07T05:34:04.592Z,13.47
2018-11-07T05:36:34.652Z,13.30
2018-11-07T05:39:05.887Z,13.00
2018-11-07T05:41:36.148Z,12.87
2018-11-07T05:44:06.659Z,13.07
2018-11-07T05:46:36.827Z,14.37
2018-11-07T05:49:07.307Z,14.13
2018-11-07T05:51:37.318Z,14.20
2018-11-07T05:54:07.477Z,13.97
2018-11-07T05:56:37.682Z,14.60
2018-11-07T05:59:08.012Z,12.53
2018-11-07T06:01:38.102Z,14.40
2018-11-07T06:04:08.722Z,13.20
2018-11-07T06:06:38.879Z,13.93
2018-11-07T06:09:09.288Z,13.30
2018-11-07T06:11:39.337Z,13.63
2018-11-07T06:14:09.857Z,13.80
2018-11-07T06:16:40.112Z,14.10
2018-11-07T06:19:10.263Z,13.97
2018-11-07T06:21:40.742Z,13.30
2018-11-07T06:24:10.689Z,14.00
2018-11-07T06:26:40.802Z,14.07
2018-11-07T06:29:11.203Z,13.67
2018-11-07T06:31:41.158Z,13.60
2018-11-07T06:34:11.403Z,13.63
2018-11-07T06:36:41.447Z,14.37
2018-11-07T06:39:12.100Z,14.90
2018-11-07T06:41:42.158Z,14.53
2018-11-07T06:44:12.614Z,14.30
2018-11-07T06:46:43.207Z,16.20
2018-11-07T06:49:13.738Z,16.80
2018-11-07T06:51:43.828Z,17.50
2018-11-07T06:54:14.053Z,15.43
2018-11-07T06:56:44.078Z,16.73
2018-11-07T06:59:14.233Z,18.73
2018-11-07T07:01:44.308Z,17.20
2018-11-07T07:04:14.338Z,18.10
2018-11-07T07:06:44.787Z,22.60
2018-11-07T07:09:15.011Z,21.73
2018-11-07T07:11:45.216Z,19.17
2018-11-07T07:14:15.188Z,18.07
2018-11-07T07:16:45.173Z,18.70
2018-11-07T07:19:15.340Z,17.20
2018-11-07T07:21:45.369Z,17.37
2018-11-07T07:24:15.293Z,16.67
2018-11-07T07:26:45.414Z,17.00
2018-11-07T07:29:15.364Z,15.73
2018-11-07T07:31:45.572Z,13.97
2018-11-07T07:34:15.877Z,14.47
2018-11-07T07:36:45.943Z,14.53
2018-11-07T07:39:16.033Z,13.67
2018-11-07T07:41:46.093Z,14.87
2018-11-07T07:44:16.343Z,14.13
2018-11-07T07:46:46.414Z,13.60
2018-11-07T07:49:16.829Z,12.77
2018-11-07T07:51:46.793Z,12.83
2018-11-07T07:54:16.873Z,12.00
2018-11-07T07:56:47.123Z,11.53
2018-11-07T07:59:17.323Z,13.87
2018-11-07T08:01:47.432Z,12.67
2018-11-07T08:04:17.488Z,12.10
2018-11-07T08:06:47.627Z,13.33
2018-11-07T08:09:17.743Z,13.67
2018-11-07T08:11:47.808Z,13.80
2018-11-07T08:14:18.129Z,12.77
2018-11-07T08:16:48.313Z,12.50
2018-11-07T08:19:18.503Z,12.57
2018-11-07T08:21:48.728Z,12.43
2018-11-07T08:24:19.064Z,13.30
2018-11-07T08:26:49.483Z,14.87
2018-11-07T08:29:19.773Z,12.87
2018-11-07T08:31:49.827Z,13.37
2018-11-07T08:34:19.903Z,14.03
2018-11-07T08:36:50.163Z,14.50
2018-11-07T08:39:20.093Z,14.70
2018-11-07T08:41:50.198Z,15.70
2018-11-07T08:44:20.179Z,14.40
2018-11-07T08:46:50.188Z,14.60
2018-11-07T08:49:20.308Z,15.10
2018-11-07T08:51:50.423Z,15.80
2018-11-07T08:54:20.607Z,17.30
2018-11-07T08:56:50.649Z,15.63
2018-11-07T08:59:20.693Z,14.67
2018-11-07T09:01:50.834Z,16.27
2018-11-07T09:04:21.118Z,14.77
2018-11-07T09:06:51.548Z,14.17
2018-11-07T09:09:21.803Z,12.80
2018-11-07T09:11:52.051Z,12.17
2018-11-07T09:14:22.488Z,12.10
2018-11-07T09:16:52.538Z,11.93
2018-11-07T09:19:23.003Z,11.97
2018-11-07T09:21:53.367Z,10.97
2018-11-07T09:24:23.652Z,10.57
2018-11-07T09:26:54.018Z,9.77
2018-11-07T09:29:24.257Z,7.60
2018-11-07T09:31:54.393Z,8.80
2018-11-07T09:34:24.725Z,8.77
2018-11-07T09:36:54.788Z,8.90
2018-11-07T09:39:25.196Z,9.13
2018-11-07T09:41:55.218Z,7.70
2018-11-07T09:44:25.412Z,6.57
2018-11-07T09:46:55.582Z,6.33
2018-11-07T09:49:25.735Z,5.90
2018-11-07T09:51:56.012Z,3.57
2018-11-07T09:54:26.079Z,3.60
2018-11-07T09:56:56.298Z,4.00
2018-11-07T09:59:26.827Z,4.20
2018-11-07T10:01:56.968Z,3.87
2018-11-07T10:04:27.058Z,3.40
2018-11-07T10:06:57.133Z,3.37
2018-11-07T10:09:27.109Z,2.83
2018-11-07T10:11:57.383Z,2.90
2018-11-07T10:14:27.543Z,2.40
2018-11-07T10:16:57.908Z,2.23
2018-11-07T10:19:28.043Z,1.53
2018-11-07T10:21:58.313Z,1.23
2018-11-07T10:24:28.449Z,1.10
2018-11-07T10:26:58.742Z,1.63
2018-11-07T10:29:29.020Z,1.50
2018-11-07T10:31:58.933Z,1.47
2018-11-07T10:34:29.141Z,1.17
2018-11-07T10:36:59.618Z,1.10
2018-11-07T10:39:30.050Z,1.80
2018-11-07T10:42:00.009Z,1.30
2018-11-07T10:44:30.304Z,1.40
2018-11-07T10:47:00.608Z,2.07
2018-11-07T10:49:30.978Z,1.83
2018-11-07T10:52:01.246Z,2.13
2018-11-07T10:54:31.473Z,2.60
2018-11-07T10:57:01.808Z,9.10
2018-11-07T10:59:31.729Z,8.67
2018-11-07T11:02:03.758Z,6.97
2018-11-07T11:04:34.052Z,7.97
2018-11-07T11:07:04.193Z,7.80
2018-11-07T11:09:34.449Z,7.67
2018-11-07T11:12:04.553Z,8.77
2018-11-07T11:14:34.828Z,7.50
2018-11-07T11:17:05.348Z,7.73
2018-11-07T11:19:35.688Z,7.03
2018-11-07T11:22:06.088Z,6.43
2018-11-07T11:24:36.582Z,6.50
2018-11-07T11:27:07.078Z,6.70
2018-11-07T11:29:37.120Z,5.90
2018-11-07T11:32:07.653Z,6.20
2018-11-07T11:34:37.816Z,6.03
2018-11-07T11:37:08.053Z,5.70
2018-11-07T11:39:38.133Z,4.93
2018-11-07T11:42:08.413Z,5.10
2018-11-07T11:44:38.466Z,5.03
2018-11-07T11:47:08.713Z,5.20
2018-11-07T11:49:39.108Z,5.30
2018-11-07T11:52:09.027Z,5.23
2018-11-07T11:54:39.270Z,5.23
2018-11-07T11:57:09.583Z,6.50
2018-11-07T11:59:40.065Z,5.90
2018-11-07T12:02:09.989Z,5.43
2018-11-07T12:04:40.173Z,5.90
2018-11-07T12:07:10.278Z,5.80
2018-11-07T12:09:40.673Z,5.57
2018-11-07T12:12:10.802Z,5.67
2018-11-07T12:14:41.043Z,5.23
2018-11-07T12:17:12.173Z,5.10
2018-11-07T12:19:42.408Z,3.37
2018-11-07T12:22:12.553Z,3.47
2018-11-07T12:24:42.858Z,3.73
2018-11-07T12:27:13.113Z,3.17
2018-11-07T12:29:43.209Z,3.53
2018-11-07T12:32:14.447Z,3.90
2018-11-07T12:34:44.458Z,3.80
2018-11-07T12:37:14.613Z,3.63
2018-11-07T12:39:44.973Z,3.03
2018-11-07T12:42:15.088Z,4.57
2018-11-07T12:44:45.183Z,3.17
2018-11-07T12:47:15.349Z,2.73
2018-11-07T12:49:45.642Z,3.13
2018-11-07T12:52:15.758Z,2.47
2018-11-07T12:54:45.793Z,2.57
2018-11-07T12:57:16.006Z,2.70
2018-11-07T12:59:46.222Z,2.53
2018-11-07T13:02:16.345Z,1.93
2018-11-07T13:04:46.574Z,1.93
2018-11-07T13:07:16.548Z,2.40
2018-11-07T13:09:46.658Z,2.40
2018-11-07T13:12:16.718Z,2.60
2018-11-07T13:14:47.108Z,2.00
2018-11-07T13:17:17.429Z,1.77
2018-11-07T13:19:47.443Z,2.40
2018-11-07T13:22:17.731Z,1.90
2018-11-07T13:24:48.093Z,1.73
2018-11-07T13:27:18.428Z,1.90
2018-11-07T13:29:48.713Z,1.60
2018-11-07T13:32:19.138Z,1.23
2018-11-07T13:34:49.571Z,1.40
2018-11-07T13:37:19.773Z,1.70
2018-11-07T13:39:49.983Z,1.70
2018-11-07T13:42:20.154Z,2.07
2018-11-07T13:44:50.376Z,2.63
2018-11-07T13:47:20.729Z,1.77
2018-11-07T13:49:51.303Z,1.93
2018-11-07T13:52:22.153Z,1.87
2018-11-07T13:54:52.528Z,1.60
2018-11-07T13:57:23.051Z,1.80
2018-11-07T13:59:53.723Z,2.00
2018-11-07T14:02:24.833Z,1.67
2018-11-07T14:04:55.226Z,1.83
2018-11-07T14:07:25.661Z,2.00
2018-11-07T14:09:56.207Z,1.73
2018-11-07T14:12:26.583Z,2.03
2018-11-07T14:14:56.953Z,2.30
2018-11-07T14:17:27.543Z,2.33
2018-11-07T14:19:58.073Z,2.60
2018-11-07T14:22:28.203Z,2.70
2018-11-07T14:24:58.383Z,2.50
2018-11-07T14:27:28.783Z,2.30
2018-11-07T14:30:00.188Z,2.37
2018-11-07T14:32:31.148Z,1.90
2018-11-07T14:35:01.761Z,1.93
2018-11-07T14:37:32.070Z,2.33
2018-11-07T14:40:02.383Z,2.43
2018-11-07T14:42:32.920Z,2.27
2018-11-07T14:45:03.273Z,3.30
2018-11-07T14:47:33.523Z,2.87
2018-11-07T14:50:03.841Z,3.03
2018-11-07T14:52:33.931Z,5.10
2018-11-07T14:55:04.064Z,5.80
2018-11-07T14:57:34.663Z,9.80
2018-11-07T15:00:04.881Z,9.57
2018-11-07T15:02:35.155Z,11.50
2018-11-07T15:05:05.688Z,11.63
2018-11-07T15:07:35.988Z,12.67
2018-11-07T15:10:06.654Z,43.90
2018-11-07T15:12:36.928Z,15.00
2018-11-07T15:15:08.438Z,12.87
2018-11-07T15:17:38.953Z,12.43
2018-11-07T15:20:10.573Z,14.33
2018-11-07T15:22:40.671Z,12.80
2018-11-07T15:25:12.024Z,14.27
2018-11-07T15:27:43.428Z,13.00
2018-11-07T15:30:14.631Z,14.10
2018-11-07T15:32:45.268Z,13.93
2018-11-07T15:35:15.434Z,14.60
2018-11-07T15:37:45.613Z,14.20
2018-11-07T15:40:16.938Z,16.53
2018-11-07T15:42:47.669Z,17.57
2018-11-07T15:45:19.967Z,16.93
2018-11-07T15:47:50.618Z,17.00
2018-11-07T15:50:25.864Z,16.07
2018-11-07T15:52:56.069Z,15.77
2018-11-07T15:55:26.700Z,16.03
2018-11-07T15:57:56.886Z,15.93
2018-11-07T16:00:27.933Z,16.70
2018-11-07T16:02:57.973Z,17.77
2018-11-07T16:05:28.103Z,18.03
2018-11-07T16:07:58.468Z,17.00
2018-11-07T16:10:28.611Z,17.43
2018-11-07T16:12:58.826Z,17.23
2018-11-07T16:15:29.176Z,16.93
2018-11-07T16:17:59.428Z,15.33
2018-11-07T16:20:29.721Z,16.50
2018-11-07T16:23:00.093Z,17.00
2018-11-07T16:25:30.543Z,15.67
2018-11-07T16:28:01.629Z,10.87
2018-11-07T16:30:31.804Z,17.17
2018-11-07T16:33:01.903Z,18.00
2018-11-07T16:35:32.122Z,18.37
2018-11-07T16:38:02.479Z,19.70
2018-11-07T16:40:32.689Z,20.77
2018-11-07T16:43:02.988Z,21.97
2018-11-07T16:45:33.470Z,21.67
2018-11-07T16:48:03.788Z,26.30
2018-11-07T16:50:34.231Z,25.33
2018-11-07T16:53:04.563Z,26.47
2018-11-07T16:55:34.884Z,25.13
2018-11-07T16:58:05.093Z,23.43
2018-11-07T17:00:35.354Z,25.73
2018-11-07T17:03:05.669Z,23.57
2018-11-07T17:05:35.859Z,22.00
2018-11-07T17:08:06.198Z,22.67
2018-11-07T17:10:36.248Z,22.67
2018-11-07T17:13:06.438Z,21.83
2018-11-07T17:15:36.548Z,23.90
2018-11-07T17:18:06.988Z,25.60
2018-11-07T17:20:37.916Z,26.37
2018-11-07T17:23:08.213Z,26.30
2018-11-07T17:25:38.648Z,25.20
2018-11-07T17:28:09.053Z,25.97
2018-11-07T17:30:39.503Z,25.83
2018-11-07T17:33:09.802Z,25.13
2018-11-07T17:35:40.203Z,25.13
2018-11-07T17:38:10.603Z,24.13
2018-11-07T17:40:40.909Z,24.50
2018-11-07T17:43:11.533Z,23.27
2018-11-07T17:45:42.013Z,27.10
2018-11-07T17:48:13.339Z,28.10
2018-11-07T17:50:43.548Z,23.60
2018-11-07T17:53:13.903Z,24.93
2018-11-07T17:55:44.168Z,27.27
2018-11-07T17:58:14.288Z,24.80
2018-11-07T18:00:44.678Z,26.83
2018-11-07T18:03:14.701Z,25.37
2018-11-07T18:05:45.858Z,26.43
2018-11-07T18:08:16.308Z,25.60
2018-11-07T18:10:46.854Z,21.33
2018-11-07T18:13:17.193Z,25.00
2018-11-07T18:15:47.548Z,23.57
2018-11-07T18:18:18.033Z,25.93
2018-11-07T18:20:48.415Z,27.77
2018-11-07T18:23:19.252Z,26.83
2018-11-07T18:25:49.853Z,25.10
2018-11-07T18:28:20.463Z,28.83
2018-11-07T18:30:51.148Z,24.80
2018-11-07T18:33:21.593Z,26.47
2018-11-07T18:35:52.440Z,29.70
2018-11-07T18:38:22.825Z,26.50
2018-11-07T18:40:53.557Z,26.57
2018-11-07T18:43:24.162Z,28.07
2018-11-07T18:45:54.863Z,29.23
2018-11-07T18:48:25.607Z,30.33
2018-11-07T18:50:55.853Z,34.77
2018-11-07T18:53:26.443Z,35.63
2018-11-07T18:55:56.868Z,36.93
2018-11-07T18:58:27.546Z,36.90
2018-11-07T19:00:58.473Z,38.63
2018-11-07T19:03:28.807Z,27.10
2018-11-07T19:05:59.303Z,35.40
2018-11-07T19:08:29.798Z,36.83
2018-11-07T19:11:00.348Z,34.40
2018-11-07T19:13:30.903Z,35.83
2018-11-07T19:16:01.580Z,36.47
2018-11-07T19:18:32.328Z,42.93
2018-11-07T19:21:03.297Z,40.83
2018-11-07T19:23:33.613Z,39.90
2018-11-07T19:26:04.269Z,39.87
2018-11-07T19:28:35.078Z,37.40
2018-11-07T19:31:05.658Z,41.47
2018-11-07T19:33:36.181Z,39.33
2018-11-07T19:36:07.223Z,37.37
2018-11-07T19:38:38.105Z,39.43
2018-11-07T19:41:08.823Z,38.70
2018-11-07T19:43:39.362Z,40.13
2018-11-07T19:46:09.508Z,41.07
2018-11-07T19:48:40.488Z,37.17
2018-11-07T19:51:11.239Z,38.13
2018-11-07T19:53:41.950Z,38.37
2018-11-07T19:56:12.347Z,37.57
2018-11-07T19:58:43.178Z,36.97
2018-11-07T20:01:13.708Z,39.20
2018-11-07T20:03:44.809Z,39.50
2018-11-07T20:06:15.219Z,34.40
2018-11-07T20:08:45.948Z,33.73
2018-11-07T20:11:16.478Z,38.53
2018-11-07T20:13:47.612Z,38.43
2018-11-07T20:16:18.248Z,40.10
2018-11-07T20:18:48.711Z,37.80
2018-11-07T20:21:19.098Z,39.73
2018-11-07T20:23:49.967Z,40.60
2018-11-07T20:26:20.562Z,40.20
2018-11-07T20:28:51.289Z,40.07
2018-11-07T20:31:21.843Z,35.10
2018-11-07T20:33:52.013Z,35.90
2018-11-07T20:36:22.938Z,32.60
2018-11-07T20:38:53.507Z,32.70
2018-11-07T20:41:26.062Z,33.67
2018-11-07T20:43:56.793Z,32.67
2018-11-07T20:46:30.193Z,35.07
2018-11-07T20:49:00.607Z,38.20
2018-11-07T20:51:31.318Z,35.63
2018-11-07T20:54:02.067Z,39.30
2018-11-07T20:56:32.867Z,41.57
2018-11-07T20:59:03.693Z,37.17
2018-11-07T21:01:34.919Z,37.97
2018-11-07T21:04:06.168Z,37.57
2018-11-07T21:06:37.418Z,36.47
2018-11-07T21:09:10.838Z,33.63
2018-11-07T21:11:41.568Z,32.23
2018-11-07T21:14:12.308Z,36.30
2018-11-07T21:16:42.763Z,38.33
2018-11-07T21:19:13.023Z,38.43
2018-11-07T21:21:43.423Z,40.80
2018-11-07T21:24:13.648Z,42.57
2018-11-07T21:26:44.208Z,43.03
2018-11-07T21:29:14.316Z,40.77
2018-11-07T21:31:45.373Z,38.50
2018-11-07T21:34:15.608Z,41.03
2018-11-07T21:36:46.034Z,39.60
2018-11-07T21:39:16.298Z,39.57
2018-11-07T21:41:46.558Z,40.83
2018-11-07T21:44:16.980Z,41.33
2018-11-07T21:46:47.611Z,42.03
2018-11-07T21:49:18.052Z,42.03
2018-11-07T21:51:48.963Z,39.00
2018-11-07T21:54:19.278Z,39.23
2018-11-07T21:56:49.697Z,39.90
2018-11-07T21:59:20.138Z,42.50
2018-11-07T22:01:50.773Z,36.77
2018-11-07T22:04:21.623Z,36.67
2018-11-07T22:06:52.718Z,34.93
2018-11-07T22:09:23.043Z,34.13
2018-11-07T22:11:53.399Z,33.97
2018-11-07T22:14:23.977Z,34.40
2018-11-07T22:16:54.548Z,30.03
2018-11-07T22:19:25.188Z,33.33
2018-11-07T22:21:55.713Z,30.73
2018-11-07T22:24:26.190Z,32.33
2018-11-07T22:26:56.300Z,34.90
2018-11-07T22:29:26.893Z,32.60
2018-11-07T22:31:57.199Z,31.03
2018-11-07T22:34:27.768Z,30.13
2018-11-07T22:36:58.593Z,30.20
2018-11-07T22:39:28.932Z,36.00
2018-11-07T22:41:59.587Z,36.27
2018-11-07T22:44:30.313Z,36.33
2018-11-07T22:47:01.288Z,36.17
2018-11-07T22:49:31.973Z,37.40
2018-11-07T22:52:02.538Z,37.83
2018-11-07T22:54:33.151Z,37.37
2018-11-07T22:57:03.443Z,37.03
2018-11-07T22:59:33.758Z,38.87
2018-11-07T23:02:04.049Z,38.27
2018-11-07T23:04:34.583Z,39.47
2018-11-07T23:07:04.939Z,36.20
2018-11-07T23:09:34.954Z,35.97
2018-11-07T23:12:05.553Z,37.27
2018-11-07T23:14:35.919Z,38.20
2018-11-07T23:17:05.969Z,37.23
2018-11-07T23:19:36.109Z,39.33
2018-11-07T23:22:06.573Z,37.70
2018-11-07T23:24:37.293Z,38.23
2018-11-07T23:27:07.566Z,36.77
2018-11-07T23:29:37.617Z,36.63
2018-11-07T23:32:07.873Z,37.60
2018-11-07T23:34:38.192Z,40.23
2018-11-07T23:37:08.368Z,38.57
2018-11-07T23:39:38.713Z,37.50
2018-11-07T23:42:09.008Z,39.27
2018-11-07T23:44:39.253Z,39.67
2018-11-07T23:47:09.606Z,39.37
2018-11-07T23:49:39.855Z,40.43
2018-11-07T23:52:10.443Z,37.77
2018-11-07T23:54:40.918Z,36.20
2018-11-07T23:57:11.244Z,36.77
2018-11-07T23:59:41.517Z,34.23
